createdAt,value
2019-06-08T00:01:00.979Z,4.85
2019-06-08T00:03:33.172Z,3.90
2019-06-08T00:06:05.454Z,3.87
2019-06-08T00:08:38.021Z,4.45
2019-06-08T00:11:09.905Z,4.62
2019-06-08T00:13:42.053Z,3.77
2019-06-08T00:16:15.314Z,3.95
2019-06-08T00:18:47.594Z,4.83
2019-06-08T00:21:20.091Z,4.80
2019-06-08T00:23:52.977Z,4.90
2019-06-08T00:26:25.478Z,4.87
2019-06-08T00:28:57.808Z,5.75
2019-06-08T00:31:30.550Z,6.30
2019-06-08T00:34:02.445Z,6.03
2019-06-08T00:36:34.687Z,6.00
2019-06-08T00:39:10.964Z,5.10
2019-06-08T00:41:43.018Z,4.17
2019-06-08T00:44:15.258Z,4.97
2019-06-08T00:46:47.900Z,3.95
2019-06-08T00:49:20.572Z,3.65
2019-06-08T00:51:52.892Z,3.72
2019-06-08T00:54:25.787Z,5.87
2019-06-08T00:56:57.939Z,5.45
2019-06-08T00:59:30.450Z,4.67
2019-06-08T01:02:03.120Z,6.10
2019-06-08T01:04:35.236Z,6.10
2019-06-08T01:07:07.330Z,5.67
2019-06-08T01:09:39.798Z,5.97
2019-06-08T01:12:11.875Z,6.17
2019-06-08T01:14:44.067Z,5.50
2019-06-08T01:17:16.619Z,4.10
2019-06-08T01:19:49.835Z,3.55
2019-06-08T01:22:23.661Z,2.85
2019-06-08T01:24:56.312Z,2.98
2019-06-08T01:27:28.585Z,3.87
2019-06-08T01:30:00.864Z,4.47
2019-06-08T01:32:33.485Z,3.17
2019-06-08T01:35:07.252Z,3.77
2019-06-08T01:37:39.395Z,3.52
2019-06-08T01:40:11.976Z,3.35
2019-06-08T01:42:44.194Z,3.30
2019-06-08T01:45:18.438Z,2.55
2019-06-08T01:47:50.659Z,2.55
2019-06-08T01:50:22.676Z,2.75
2019-06-08T01:52:55.044Z,2.83
2019-06-08T01:55:27.092Z,3.75
2019-06-08T01:57:59.518Z,2.22
2019-06-08T02:00:40.581Z,2.25
2019-06-08T02:03:07.802Z,2.02
2019-06-08T02:05:43.402Z,1.67
2019-06-08T02:08:18.678Z,1.10
2019-06-08T02:10:50.922Z,1.00
2019-06-08T02:13:23.155Z,1.15
2019-06-08T02:15:55.586Z,1.92
2019-06-08T02:18:50.828Z,1.72
2019-06-08T02:21:20.579Z,2.20
2019-06-08T02:24:01.990Z,2.15
2019-06-08T02:26:35.047Z,2.08
2019-06-08T02:29:08.496Z,1.72
2019-06-08T02:31:43.357Z,1.35
2019-06-08T02:34:15.681Z,1.82
2019-06-08T02:36:48.056Z,1.20
2019-06-08T02:39:20.791Z,1.82
2019-06-08T02:41:52.873Z,1.72
2019-06-08T02:44:24.841Z,1.30
2019-06-08T02:47:21.412Z,1.47
2019-06-08T02:49:53.710Z,2.12
2019-06-08T02:52:26.877Z,1.00
2019-06-08T02:54:59.927Z,0.60
2019-06-08T02:57:36.071Z,1.00
2019-06-08T03:00:31.447Z,0.50
2019-06-08T03:03:05.568Z,1.25
2019-06-08T03:05:40.481Z,0.60
2019-06-08T03:08:26.285Z,0.70
2019-06-08T03:10:59.009Z,0.68
2019-06-08T03:13:33.922Z,0.30
2019-06-08T03:16:06.979Z,0.75
2019-06-08T03:18:40.245Z,0.93
2019-06-08T03:21:16.762Z,0.47
2019-06-08T03:23:49.547Z,0.50
2019-06-08T03:26:21.809Z,0.70
2019-06-08T03:28:54.303Z,0.75
2019-06-08T03:31:27.053Z,0.82
2019-06-08T03:33:59.750Z,0.55
2019-06-08T03:36:34.981Z,0.53
2019-06-08T03:39:06.880Z,1.10
2019-06-08T03:41:40.424Z,0.70
2019-06-08T03:44:13.215Z,0.35
2019-06-08T03:46:45.980Z,0.37
2019-06-08T03:49:50.715Z,0.55
2019-06-08T03:52:31.305Z,0.45
2019-06-08T03:55:03.563Z,0.62
2019-06-08T03:57:42.162Z,0.60
2019-06-08T04:00:23.617Z,0.93
2019-06-08T04:02:55.457Z,0.93
2019-06-08T04:05:27.450Z,2.50
2019-06-08T04:08:00.343Z,0.80
2019-06-08T04:10:32.786Z,0.57
2019-06-08T04:13:04.764Z,0.42
2019-06-08T04:15:37.988Z,0.40
2019-06-08T04:18:10.433Z,0.40
2019-06-08T04:20:45.515Z,0.53
2019-06-08T04:23:35.237Z,1.05
2019-06-08T04:26:07.952Z,0.90
2019-06-08T04:28:40.575Z,0.60
2019-06-08T04:31:13.924Z,0.30
2019-06-08T04:33:47.592Z,0.40
2019-06-08T04:36:19.997Z,0.78
2019-06-08T04:38:53.221Z,0.47
2019-06-08T04:41:25.421Z,0.45
2019-06-08T04:44:01.903Z,1.05
2019-06-08T04:46:43.266Z,0.50
2019-06-08T04:49:15.063Z,0.40
2019-06-08T04:51:49.381Z,0.50
2019-06-08T04:54:21.047Z,0.42
2019-06-08T04:56:54.519Z,0.50
2019-06-08T04:59:26.439Z,0.35
2019-06-08T05:01:58.454Z,0.42
2019-06-08T05:04:31.577Z,0.42
2019-06-08T05:07:04.572Z,0.45
2019-06-08T05:09:36.840Z,0.40
2019-06-08T05:12:09.101Z,0.47
2019-06-08T05:15:02.797Z,0.40
2019-06-08T05:17:35.241Z,0.70
2019-06-08T05:20:09.453Z,0.30
2019-06-08T05:22:41.570Z,0.20
2019-06-08T05:25:13.907Z,0.35
2019-06-08T05:27:47.343Z,0.30
2019-06-08T05:30:20.717Z,0.30
2019-06-08T05:32:53.805Z,0.30
2019-06-08T05:35:25.921Z,0.40
2019-06-08T05:37:57.904Z,0.35
2019-06-08T05:40:29.599Z,1.32
2019-06-08T05:43:21.513Z,0.60
2019-06-08T05:45:54.976Z,0.40
2019-06-08T05:48:27.004Z,0.40
2019-06-08T05:51:19.199Z,0.50
2019-06-08T05:53:51.708Z,0.88
2019-06-08T05:56:23.870Z,1.07
2019-06-08T05:58:55.806Z,1.00
2019-06-08T06:01:28.215Z,0.72
2019-06-08T06:04:00.257Z,0.60
2019-06-08T06:06:32.412Z,0.57
2019-06-08T06:09:05.588Z,0.42
2019-06-08T06:11:37.647Z,2.00
2019-06-08T06:14:11.940Z,0.68
2019-06-08T06:16:44.920Z,0.60
2019-06-08T06:19:16.627Z,0.40
2019-06-08T06:21:49.237Z,0.50
2019-06-08T06:24:21.217Z,0.80
2019-06-08T06:26:53.595Z,0.50
2019-06-08T06:29:25.489Z,0.68
2019-06-08T06:32:17.731Z,0.50
2019-06-08T06:34:49.944Z,0.50
2019-06-08T06:37:22.000Z,1.15
2019-06-08T06:39:54.049Z,3.52
2019-06-08T06:42:26.292Z,0.78
2019-06-08T06:44:58.254Z,0.75
2019-06-08T06:47:32.546Z,0.88
2019-06-08T06:50:11.471Z,0.37
2019-06-08T06:52:44.642Z,0.40
2019-06-08T06:55:20.121Z,0.30
2019-06-08T06:57:53.556Z,0.30
2019-06-08T07:00:29.143Z,0.80
2019-06-08T07:03:03.544Z,0.40
2019-06-08T07:05:35.551Z,0.50
2019-06-08T07:08:07.817Z,0.30
2019-06-08T07:10:41.744Z,0.70
2019-06-08T07:13:13.653Z,0.20
2019-06-08T07:15:46.980Z,0.30
2019-06-08T07:18:39.853Z,0.40
2019-06-08T07:21:13.128Z,0.30
2019-06-08T07:23:46.169Z,0.30
2019-06-08T07:26:18.789Z,0.30
2019-06-08T07:28:52.428Z,0.55
2019-06-08T07:31:25.088Z,4.80
2019-06-08T07:33:58.000Z,0.40
2019-06-08T07:36:31.701Z,0.60
2019-06-08T07:39:04.371Z,0.50
2019-06-08T07:41:37.072Z,0.60
2019-06-08T07:44:09.096Z,0.33
2019-06-08T07:46:41.904Z,6.22
2019-06-08T07:49:14.772Z,0.88
2019-06-08T07:51:58.667Z,0.60
2019-06-08T07:54:21.458Z,0.50
2019-06-08T07:56:54.835Z,0.30
2019-06-08T07:59:27.257Z,0.60
2019-06-08T08:01:59.667Z,0.30
2019-06-08T08:04:31.773Z,16.27
2019-06-08T08:07:03.950Z,0.70
2019-06-08T08:09:35.947Z,0.30
2019-06-08T08:12:12.035Z,0.40
2019-06-08T08:14:42.048Z,0.50
2019-06-08T08:17:14.309Z,0.35
2019-06-08T08:19:47.028Z,1.17
2019-06-08T08:22:26.195Z,0.78
2019-06-08T08:25:18.062Z,0.30
2019-06-08T08:27:50.338Z,0.82
2019-06-08T08:30:23.924Z,0.50
2019-06-08T08:33:18.402Z,0.53
2019-06-08T08:35:52.160Z,0.40
2019-06-08T08:38:24.285Z,0.42
2019-06-08T08:41:03.834Z,0.30
2019-06-08T08:43:30.493Z,0.40
2019-06-08T08:46:05.040Z,0.50
2019-06-08T08:48:37.725Z,0.40
2019-06-08T08:51:10.703Z,0.30
2019-06-08T08:53:43.347Z,0.42
2019-06-08T08:56:15.578Z,1.20
2019-06-08T08:58:48.187Z,0.20
2019-06-08T09:01:20.611Z,0.35
2019-06-08T09:03:56.011Z,0.30
2019-06-08T09:06:27.953Z,0.45
2019-06-08T09:09:03.257Z,0.30
2019-06-08T09:11:33.826Z,0.40
2019-06-08T09:14:12.563Z,0.55
2019-06-08T09:16:40.081Z,0.30
2019-06-08T09:19:12.260Z,0.75
2019-06-08T09:21:44.301Z,0.50
2019-06-08T09:24:18.565Z,0.82
2019-06-08T09:26:52.344Z,0.70
2019-06-08T09:29:24.575Z,0.70
2019-06-08T09:31:59.061Z,0.30
2019-06-08T09:34:33.803Z,0.23
2019-06-08T09:37:18.678Z,0.50
2019-06-08T09:39:50.504Z,0.70
2019-06-08T09:42:22.897Z,0.42
2019-06-08T09:45:00.097Z,0.70
2019-06-08T09:47:29.770Z,0.80
2019-06-08T09:50:04.484Z,1.37
2019-06-08T09:52:41.023Z,1.17
2019-06-08T09:55:11.943Z,0.90
2019-06-08T09:57:43.754Z,0.80
2019-06-08T10:00:21.334Z,0.37
2019-06-08T10:02:51.209Z,0.82
2019-06-08T10:05:23.239Z,0.60
2019-06-08T10:07:58.717Z,1.02
2019-06-08T10:10:29.247Z,0.70
2019-06-08T10:13:21.645Z,0.45
2019-06-08T10:15:55.189Z,0.65
2019-06-08T10:18:32.961Z,1.17
2019-06-08T10:21:06.179Z,0.60
2019-06-08T10:23:41.609Z,0.85
2019-06-08T10:26:13.765Z,0.60
2019-06-08T10:28:48.276Z,0.50
2019-06-08T10:31:19.279Z,0.62
2019-06-08T10:33:51.857Z,1.80
2019-06-08T10:36:23.968Z,0.88
2019-06-08T10:38:56.749Z,0.68
2019-06-08T10:41:29.828Z,0.78
2019-06-08T10:44:01.556Z,1.10
2019-06-08T10:46:43.109Z,1.07
2019-06-08T10:49:18.352Z,1.47
2019-06-08T10:51:49.369Z,1.62
2019-06-08T10:54:40.684Z,1.20
2019-06-08T10:57:14.051Z,1.45
2019-06-08T10:59:48.583Z,1.40
2019-06-08T11:02:20.314Z,1.35
2019-06-08T11:04:52.441Z,1.85
2019-06-08T11:07:24.532Z,0.80
2019-06-08T11:09:58.660Z,1.32
2019-06-08T11:12:31.076Z,1.17
2019-06-08T11:15:03.620Z,1.47
2019-06-08T11:17:37.876Z,1.62
2019-06-08T11:20:13.221Z,2.10
2019-06-08T11:22:44.399Z,1.82
2019-06-08T11:25:19.761Z,2.90
2019-06-08T11:27:50.714Z,1.82
2019-06-08T11:30:27.157Z,2.20
2019-06-08T11:32:57.746Z,2.55
2019-06-08T11:35:30.218Z,2.65
2019-06-08T11:38:02.300Z,2.45
2019-06-08T11:40:34.793Z,2.58
2019-06-08T11:43:08.505Z,1.75
2019-06-08T11:45:40.660Z,1.95
2019-06-08T11:48:13.106Z,2.42
2019-06-08T11:50:45.641Z,2.80
2019-06-08T11:53:38.443Z,2.10
2019-06-08T11:56:13.319Z,2.33
2019-06-08T11:59:05.753Z,2.90
2019-06-08T12:01:37.914Z,2.12
2019-06-08T12:04:10.186Z,2.20
2019-06-08T12:06:42.321Z,3.05
2019-06-08T12:09:14.774Z,3.25
2019-06-08T12:11:48.055Z,2.22
2019-06-08T12:14:20.424Z,1.72
2019-06-08T12:16:52.204Z,1.98
2019-06-08T12:19:24.375Z,1.90
2019-06-08T12:21:57.980Z,3.02
2019-06-08T12:24:41.422Z,2.17
2019-06-08T12:27:18.669Z,2.90
2019-06-08T12:29:37.653Z,2.77
2019-06-08T12:32:12.070Z,3.05
2019-06-08T12:34:43.458Z,3.35
2019-06-08T12:37:21.303Z,3.33
2019-06-08T12:39:49.478Z,3.75
2019-06-08T12:42:41.595Z,2.35
2019-06-08T12:45:15.361Z,2.50
2019-06-08T12:47:48.153Z,2.00
2019-06-08T12:50:20.386Z,2.55
2019-06-08T12:52:52.307Z,2.35
2019-06-08T12:55:25.618Z,2.12
2019-06-08T12:57:58.224Z,1.45
2019-06-08T13:00:31.125Z,1.52
2019-06-08T13:03:03.585Z,2.17
2019-06-08T13:05:37.818Z,2.40
2019-06-08T13:08:10.528Z,2.08
2019-06-08T13:10:43.778Z,2.33
2019-06-08T13:13:19.106Z,1.50
2019-06-08T13:15:49.762Z,1.35
2019-06-08T13:18:22.359Z,1.75
2019-06-08T13:20:54.578Z,1.25
2019-06-08T13:23:28.315Z,1.55
2019-06-08T13:26:00.414Z,1.37
2019-06-08T13:28:32.506Z,1.37
2019-06-08T13:31:04.795Z,1.60
2019-06-08T13:33:38.411Z,1.57
2019-06-08T13:36:10.536Z,1.40
2019-06-08T13:38:51.659Z,1.67
2019-06-08T13:41:26.514Z,1.40
2019-06-08T13:43:58.471Z,1.37
2019-06-08T13:46:30.405Z,1.05
2019-06-08T13:49:02.282Z,1.60
2019-06-08T13:51:34.619Z,1.40
2019-06-08T13:54:08.496Z,1.70
2019-06-08T13:56:40.938Z,2.00
2019-06-08T13:59:14.264Z,1.70
2019-06-08T14:01:49.863Z,1.47
2019-06-08T14:04:22.545Z,2.47
2019-06-08T14:06:58.113Z,1.62
2019-06-08T14:09:31.540Z,1.45
2019-06-08T14:12:03.835Z,1.95
2019-06-08T14:14:39.630Z,2.25
2019-06-08T14:17:10.276Z,2.17
2019-06-08T14:19:42.551Z,2.33
2019-06-08T14:22:14.503Z,2.92
2019-06-08T14:24:47.855Z,3.27
2019-06-08T14:27:21.301Z,2.92
2019-06-08T14:29:53.822Z,2.45
2019-06-08T14:32:25.979Z,2.08
2019-06-08T14:34:58.366Z,2.70
2019-06-08T14:37:30.708Z,2.83
2019-06-08T14:40:02.816Z,2.45
2019-06-08T14:42:34.663Z,4.05
2019-06-08T14:45:11.080Z,2.52
2019-06-08T14:47:43.460Z,2.58
2019-06-08T14:50:21.108Z,2.75
2019-06-08T14:52:52.753Z,2.83
2019-06-08T14:55:25.074Z,2.12
2019-06-08T14:57:57.998Z,2.83
2019-06-08T15:00:30.370Z,1.87
2019-06-08T15:03:02.631Z,1.70
2019-06-08T15:05:36.549Z,2.70
2019-06-08T15:08:09.008Z,2.42
2019-06-08T15:10:41.286Z,2.30
2019-06-08T15:13:13.499Z,1.98
2019-06-08T15:15:45.901Z,2.30
2019-06-08T15:18:18.545Z,2.15
2019-06-08T15:20:51.824Z,1.98
2019-06-08T15:23:24.819Z,2.30
2019-06-08T15:25:58.231Z,2.12
2019-06-08T15:28:35.773Z,2.47
2019-06-08T15:31:04.614Z,1.82
2019-06-08T15:33:38.336Z,2.30
2019-06-08T15:36:10.659Z,2.00
2019-06-08T15:38:43.521Z,2.08
2019-06-08T15:41:20.789Z,2.17
2019-06-08T15:43:49.207Z,3.47
2019-06-08T15:46:22.346Z,3.30
2019-06-08T15:48:54.592Z,2.70
2019-06-08T15:51:29.896Z,2.17
2019-06-08T15:54:00.656Z,2.37
2019-06-08T15:56:45.758Z,2.55
2019-06-08T15:59:08.857Z,2.22
2019-06-08T16:01:40.407Z,2.05
2019-06-08T16:04:12.400Z,2.52
2019-06-08T16:06:44.493Z,2.00
2019-06-08T16:09:16.646Z,2.05
2019-06-08T16:11:52.753Z,1.42
2019-06-08T16:14:26.591Z,2.98
2019-06-08T16:16:58.799Z,1.50
2019-06-08T16:19:31.889Z,1.87
2019-06-08T16:22:03.991Z,2.45
2019-06-08T16:24:36.523Z,2.17
2019-06-08T16:27:08.841Z,1.75
2019-06-08T16:29:40.681Z,2.17
2019-06-08T16:32:13.234Z,1.98
2019-06-08T16:34:45.417Z,2.90
2019-06-08T16:37:17.382Z,1.20
2019-06-08T16:39:49.480Z,1.90
2019-06-08T16:42:21.551Z,1.92
2019-06-08T16:44:53.475Z,2.27
2019-06-08T16:47:27.032Z,4.20
2019-06-08T16:49:59.140Z,2.35
2019-06-08T16:52:32.449Z,1.65
2019-06-08T16:55:05.629Z,1.42
2019-06-08T16:57:39.824Z,1.67
2019-06-08T17:00:42.197Z,2.33
2019-06-08T17:02:45.571Z,2.75
2019-06-08T17:05:17.986Z,1.98
2019-06-08T17:07:50.261Z,2.25
2019-06-08T17:10:22.427Z,2.58
2019-06-08T17:12:54.491Z,2.45
2019-06-08T17:15:26.619Z,2.58
2019-06-08T17:17:58.850Z,2.67
2019-06-08T17:20:31.987Z,1.57
2019-06-08T17:23:04.178Z,1.98
2019-06-08T17:25:36.607Z,1.52
2019-06-08T17:28:08.919Z,1.05
2019-06-08T17:30:41.482Z,1.00
2019-06-08T17:33:13.899Z,1.00
2019-06-08T17:35:46.648Z,0.68
2019-06-08T17:38:18.870Z,1.05
2019-06-08T17:40:51.155Z,1.00
2019-06-08T17:43:23.459Z,0.70
2019-06-08T17:45:55.498Z,0.55
2019-06-08T17:48:27.993Z,0.82
2019-06-08T17:51:00.109Z,0.60
2019-06-08T17:53:32.774Z,0.60
2019-06-08T17:56:05.092Z,0.60
2019-06-08T17:58:37.774Z,0.40
2019-06-08T18:01:09.765Z,0.45
2019-06-08T18:03:43.065Z,0.57
2019-06-08T18:06:17.840Z,0.50
2019-06-08T18:08:49.542Z,0.70
2019-06-08T18:11:21.788Z,0.80
2019-06-08T18:13:53.810Z,0.60
2019-06-08T18:16:27.887Z,0.60
2019-06-08T18:19:00.025Z,0.80
2019-06-08T18:21:32.524Z,0.53
2019-06-08T18:24:04.728Z,0.50
2019-06-08T18:26:38.805Z,0.50
2019-06-08T18:29:10.889Z,0.40
2019-06-08T18:31:44.002Z,0.85
2019-06-08T18:34:17.800Z,0.50
2019-06-08T18:36:50.290Z,0.72
2019-06-08T18:39:22.756Z,0.60
2019-06-08T18:41:58.221Z,0.50
2019-06-08T18:44:29.302Z,0.70
2019-06-08T18:47:01.530Z,0.33
2019-06-08T18:49:35.227Z,0.35
2019-06-08T18:52:08.095Z,0.53
2019-06-08T18:54:41.626Z,1.10
2019-06-08T18:57:14.162Z,0.75
2019-06-08T18:59:50.953Z,0.90
2019-06-08T19:02:20.221Z,0.60
2019-06-08T19:04:52.631Z,0.53
2019-06-08T19:07:24.624Z,0.72
2019-06-08T19:09:59.996Z,0.50
2019-06-08T19:12:32.153Z,0.80
2019-06-08T19:15:11.127Z,0.55
2019-06-08T19:17:43.903Z,0.82
2019-06-08T19:20:13.404Z,0.65
2019-06-08T19:22:51.942Z,0.68
2019-06-08T19:25:19.801Z,0.88
2019-06-08T19:27:53.283Z,0.90
2019-06-08T19:30:28.141Z,0.60
2019-06-08T19:32:59.516Z,0.90
2019-06-08T19:35:32.908Z,1.10
2019-06-08T19:38:07.433Z,0.95
2019-06-08T19:40:40.664Z,0.80
2019-06-08T19:43:13.128Z,1.05
2019-06-08T19:45:46.409Z,2.02
2019-06-08T19:48:19.366Z,1.15
2019-06-08T19:50:54.375Z,0.98
2019-06-08T19:53:28.276Z,0.80
2019-06-08T19:56:00.150Z,0.78
2019-06-08T19:58:32.305Z,0.90
2019-06-08T20:01:04.166Z,0.82
2019-06-08T20:03:37.858Z,1.15
2019-06-08T20:06:10.339Z,1.35
2019-06-08T20:08:42.950Z,1.25
2019-06-08T20:11:17.299Z,0.60
2019-06-08T20:13:50.424Z,1.00
2019-06-08T20:16:22.767Z,1.00
2019-06-08T20:18:57.597Z,1.25
2019-06-08T20:21:28.464Z,0.95
2019-06-08T20:24:10.510Z,0.47
2019-06-08T20:26:42.517Z,0.70
2019-06-08T20:29:16.450Z,1.35
2019-06-08T20:31:51.469Z,0.65
2019-06-08T20:34:22.526Z,1.05
2019-06-08T20:36:54.583Z,0.75
2019-06-08T20:39:27.310Z,1.00
2019-06-08T20:41:59.522Z,0.88
2019-06-08T20:44:31.442Z,0.78
2019-06-08T20:47:03.404Z,0.57
2019-06-08T20:49:37.241Z,1.12
2019-06-08T20:52:10.031Z,0.55
2019-06-08T20:54:42.827Z,1.20
2019-06-08T20:57:16.980Z,0.60
2019-06-08T20:59:50.670Z,0.50
2019-06-08T21:02:22.762Z,0.90
2019-06-08T21:04:56.270Z,1.00
2019-06-08T21:07:28.636Z,0.80
2019-06-08T21:10:00.945Z,1.37
2019-06-08T21:12:33.049Z,0.82
2019-06-08T21:15:07.052Z,1.10
2019-06-08T21:17:40.088Z,0.72
2019-06-08T21:20:12.444Z,0.65
2019-06-08T21:22:46.028Z,0.85
2019-06-08T21:25:18.646Z,0.78
2019-06-08T21:27:51.439Z,1.30
2019-06-08T21:30:25.181Z,0.55
2019-06-08T21:33:00.685Z,1.05
2019-06-08T21:35:31.307Z,0.95
2019-06-08T21:38:17.027Z,0.82
2019-06-08T21:40:37.642Z,1.05
2019-06-08T21:43:09.871Z,1.07
2019-06-08T21:45:42.245Z,1.07
2019-06-08T21:48:14.724Z,1.15
2019-06-08T21:50:48.968Z,0.80
2019-06-08T21:53:21.056Z,1.30
2019-06-08T21:55:54.180Z,1.30
2019-06-08T21:58:27.173Z,1.77
2019-06-08T22:01:01.052Z,1.17
2019-06-08T22:03:33.401Z,1.30
2019-06-08T22:06:07.855Z,1.20
2019-06-08T22:08:39.355Z,1.52
2019-06-08T22:11:11.361Z,1.75
2019-06-08T22:13:43.604Z,1.87
2019-06-08T22:16:35.005Z,5.67
2019-06-08T22:19:07.603Z,2.22
2019-06-08T22:22:01.689Z,1.98
2019-06-08T22:24:32.843Z,1.70
2019-06-08T22:27:07.044Z,1.10
2019-06-08T22:29:38.588Z,1.07
2019-06-08T22:32:10.962Z,1.20
2019-06-08T22:34:43.015Z,1.32
2019-06-08T22:37:15.125Z,1.85
2019-06-08T22:39:47.956Z,1.85
2019-06-08T22:42:20.124Z,1.35
2019-06-08T22:44:52.728Z,1.30
2019-06-08T22:47:27.161Z,1.55
2019-06-08T22:50:00.403Z,1.65
2019-06-08T22:52:33.149Z,1.87
2019-06-08T22:55:10.082Z,2.02
2019-06-08T22:57:39.784Z,1.40
2019-06-08T23:00:17.481Z,8.50
2019-06-08T23:02:48.555Z,3.40
2019-06-08T23:05:20.365Z,2.37
2019-06-08T23:07:54.746Z,2.08
2019-06-08T23:10:26.406Z,2.10
2019-06-08T23:13:00.779Z,2.30
2019-06-08T23:15:32.354Z,1.65
2019-06-08T23:18:06.639Z,1.65
2019-06-08T23:20:38.163Z,1.57
2019-06-08T23:23:10.642Z,2.02
2019-06-08T23:25:44.030Z,2.50
2019-06-08T23:28:37.551Z,1.82
2019-06-08T23:31:20.746Z,2.05
2019-06-08T23:33:42.614Z,2.02
2019-06-08T23:36:46.042Z,2.15
2019-06-08T23:38:48.681Z,1.98
2019-06-08T23:41:20.903Z,2.08
2019-06-08T23:43:53.001Z,2.40
2019-06-08T23:46:27.409Z,2.30
2019-06-08T23:49:01.827Z,2.42
2019-06-08T23:51:32.917Z,8.65
2019-06-08T23:54:06.400Z,2.87
2019-06-08T23:56:39.131Z,3.17
2019-06-08T23:59:11.355Z,2.25
